sensor_id;sensor_type;location;lat;lon;timestamp;temperature;humidity
580;DHT22;276;48.392;9.950;2023-02-12T00:00:18;7.20;99.90
580;DHT22;276;48.392;9.950;2023-02-12T00:02:44;7.20;99.90
580;DHT22;276;48.392;9.950;2023-02-12T00:05:09;7.20;99.90
580;DHT22;276;48.392;9.950;2023-02-12T00:07:35;7.20;99.90
580;DHT22;276;48.392;9.950;2023-02-12T00:10:01;7.20;99.90
580;DHT22;276;48.392;9.950;2023-02-12T00:12:28;7.20;99.90
580;DHT22;276;48.392;9.950;2023-02-12T00:14:54;7.20;99.90
580;DHT22;276;48.392;9.950;2023-02-12T00:17:20;7.20;99.90
580;DHT22;276;48.392;9.950;2023-02-12T00:19:46;7.20;99.90
580;DHT22;276;48.392;9.950;2023-02-12T00:22:12;7.20;99.90
580;DHT22;276;48.392;9.950;2023-02-12T00:24:38;7.20;99.90
580;DHT22;276;48.392;9.950;2023-02-12T00:27:05;7.10;99.90
580;DHT22;276;48.392;9.950;2023-02-12T00:29:36;7.10;99.90
580;DHT22;276;48.392;9.950;2023-02-12T00:32:04;7.10;99.90
580;DHT22;276;48.392;9.950;2023-02-12T00:34:30;7.10;99.90
580;DHT22;276;48.392;9.950;2023-02-12T00:36:56;7.10;99.90
580;DHT22;276;48.392;9.950;2023-02-12T00:39:21;7.00;99.90
580;DHT22;276;48.392;9.950;2023-02-12T00:41:49;7.10;99.90
580;DHT22;276;48.392;9.950;2023-02-12T00:44:17;7.10;99.90
580;DHT22;276;48.392;9.950;2023-02-12T00:46:42;7.10;99.90
580;DHT22;276;48.392;9.950;2023-02-12T00:49:08;7.10;99.90
580;DHT22;276;48.392;9.950;2023-02-12T00:51:36;7.10;99.90
580;DHT22;276;48.392;9.950;2023-02-12T00:54:01;7.10;99.90
580;DHT22;276;48.392;9.950;2023-02-12T00:56:27;7.10;99.90
580;DHT22;276;48.392;9.950;2023-02-12T00:58:53;7.10;99.90
580;DHT22;276;48.392;9.950;2023-02-12T01:01:18;7.10;99.90
580;DHT22;276;48.392;9.950;2023-02-12T01:03:46;7.10;99.90
580;DHT22;276;48.392;9.950;2023-02-12T01:06:12;7.10;99.90
580;DHT22;276;48.392;9.950;2023-02-12T01:08:37;7.10;99.90
580;DHT22;276;48.392;9.950;2023-02-12T01:11:06;7.10;99.90
580;DHT22;276;48.392;9.950;2023-02-12T01:13:32;7.10;99.90
580;DHT22;276;48.392;9.950;2023-02-12T01:16:15;7.10;99.90
580;DHT22;276;48.392;9.950;2023-02-12T01:18:44;7.10;99.90
580;DHT22;276;48.392;9.950;2023-02-12T01:21:11;7.10;99.90
580;DHT22;276;48.392;9.950;2023-02-12T01:23:37;7.10;99.90
580;DHT22;276;48.392;9.950;2023-02-12T01:26:05;7.20;99.90
580;DHT22;276;48.392;9.950;2023-02-12T01:28:35;7.20;99.90
580;DHT22;276;48.392;9.950;2023-02-12T01:31:01;7.20;99.90
580;DHT22;276;48.392;9.950;2023-02-12T01:33:31;7.20;99.90
580;DHT22;276;48.392;9.950;2023-02-12T01:35:57;7.20;99.90
580;DHT22;276;48.392;9.950;2023-02-12T01:38:22;7.20;99.90
580;DHT22;276;48.392;9.950;2023-02-12T01:40:48;7.20;99.90
580;DHT22;276;48.392;9.950;2023-02-12T01:43:14;7.20;99.90
580;DHT22;276;48.392;9.950;2023-02-12T01:48:05;7.20;99.90
580;DHT22;276;48.392;9.950;2023-02-12T01:50:31;7.20;99.90
580;DHT22;276;48.392;9.950;2023-02-12T01:52:58;7.20;99.90
580;DHT22;276;48.392;9.950;2023-02-12T01:55:26;7.20;99.90
580;DHT22;276;48.392;9.950;2023-02-12T01:57:54;7.20;99.90
580;DHT22;276;48.392;9.950;2023-02-12T02:00:22;7.20;99.90
580;DHT22;276;48.392;9.950;2023-02-12T02:02:54;7.20;99.90
580;DHT22;276;48.392;9.950;2023-02-12T02:05:46;7.20;99.90
580;DHT22;276;48.392;9.950;2023-02-12T02:08:16;7.20;99.90
580;DHT22;276;48.392;9.950;2023-02-12T02:10:46;7.20;99.90
580;DHT22;276;48.392;9.950;2023-02-12T02:13:12;7.20;99.90
580;DHT22;276;48.392;9.950;2023-02-12T02:15:59;7.20;99.90
580;DHT22;276;48.392;9.950;2023-02-12T02:19:18;7.20;99.90
580;DHT22;276;48.392;9.950;2023-02-12T02:38:32;7.20;99.90
580;DHT22;276;48.392;9.950;2023-02-12T02:41:07;7.20;99.90
580;DHT22;276;48.392;9.950;2023-02-12T02:43:51;7.20;99.90
580;DHT22;276;48.392;9.950;2023-02-12T02:49:01;7.20;99.90
580;DHT22;276;48.392;9.950;2023-02-12T02:51:35;7.20;99.90
580;DHT22;276;48.392;9.950;2023-02-12T02:54:21;7.20;99.90
580;DHT22;276;48.392;9.950;2023-02-12T02:56:55;7.20;99.90
580;DHT22;276;48.392;9.950;2023-02-12T02:59:28;7.20;99.90
580;DHT22;276;48.392;9.950;2023-02-12T03:02:27;7.20;99.90
580;DHT22;276;48.392;9.950;2023-02-12T03:05:08;7.20;99.90
580;DHT22;276;48.392;9.950;2023-02-12T03:07:45;7.20;99.90
580;DHT22;276;48.392;9.950;2023-02-12T03:12:43;7.20;99.90
580;DHT22;276;48.392;9.950;2023-02-12T03:15:33;7.20;99.90
580;DHT22;276;48.392;9.950;2023-02-12T03:18:06;7.20;99.90
580;DHT22;276;48.392;9.950;2023-02-12T03:20:46;7.20;99.90
580;DHT22;276;48.392;9.950;2023-02-12T03:23:22;7.20;99.90
580;DHT22;276;48.392;9.950;2023-02-12T03:28:34;7.20;99.90
580;DHT22;276;48.392;9.950;2023-02-12T03:31:12;7.20;99.90
580;DHT22;276;48.392;9.950;2023-02-12T03:39:15;7.20;99.90
580;DHT22;276;48.392;9.950;2023-02-12T03:41:53;7.20;99.90
580;DHT22;276;48.392;9.950;2023-02-12T03:44:42;7.20;99.90
580;DHT22;276;48.392;9.950;2023-02-12T03:47:20;7.20;99.90
580;DHT22;276;48.392;9.950;2023-02-12T03:50:08;7.30;99.90
580;DHT22;276;48.392;9.950;2023-02-12T03:52:35;7.30;99.90
580;DHT22;276;48.392;9.950;2023-02-12T03:55:05;7.30;99.90
580;DHT22;276;48.392;9.950;2023-02-12T03:57:39;7.30;99.90
580;DHT22;276;48.392;9.950;2023-02-12T04:00:19;7.30;99.90
580;DHT22;276;48.392;9.950;2023-02-12T04:02:45;7.30;99.90
580;DHT22;276;48.392;9.950;2023-02-12T04:05:23;7.20;99.90
580;DHT22;276;48.392;9.950;2023-02-12T04:07:52;7.20;99.90
580;DHT22;276;48.392;9.950;2023-02-12T04:10:34;7.30;99.90
580;DHT22;276;48.392;9.950;2023-02-12T04:13:09;7.20;99.90
580;DHT22;276;48.392;9.950;2023-02-12T04:16:00;7.30;99.90
580;DHT22;276;48.392;9.950;2023-02-12T04:18:47;7.20;99.90
580;DHT22;276;48.392;9.950;2023-02-12T04:24:05;7.20;99.90
580;DHT22;276;48.392;9.950;2023-02-12T04:26:53;7.20;99.90
580;DHT22;276;48.392;9.950;2023-02-12T04:32:30;7.20;99.90
580;DHT22;276;48.392;9.950;2023-02-12T04:35:10;7.20;99.90
580;DHT22;276;48.392;9.950;2023-02-12T04:37:47;7.10;99.90
580;DHT22;276;48.392;9.950;2023-02-12T04:40:18;7.20;99.90
580;DHT22;276;48.392;9.950;2023-02-12T04:42:51;7.20;99.90
580;DHT22;276;48.392;9.950;2023-02-12T04:45:27;7.20;99.90
580;DHT22;276;48.392;9.950;2023-02-12T04:47:58;7.20;99.90
580;DHT22;276;48.392;9.950;2023-02-12T04:50:26;7.20;99.90
580;DHT22;276;48.392;9.950;2023-02-12T04:53:01;7.20;99.90
580;DHT22;276;48.392;9.950;2023-02-12T04:55:29;7.20;99.90
580;DHT22;276;48.392;9.950;2023-02-12T04:58:01;7.20;99.90
580;DHT22;276;48.392;9.950;2023-02-12T05:00:29;7.20;99.90
580;DHT22;276;48.392;9.950;2023-02-12T05:02:57;7.20;99.90
580;DHT22;276;48.392;9.950;2023-02-12T05:05:22;7.20;99.90
580;DHT22;276;48.392;9.950;2023-02-12T05:07:51;7.20;99.90
580;DHT22;276;48.392;9.950;2023-02-12T05:10:19;7.20;99.90
580;DHT22;276;48.392;9.950;2023-02-12T05:12:47;7.20;99.90
580;DHT22;276;48.392;9.950;2023-02-12T05:15:17;7.30;99.90
580;DHT22;276;48.392;9.950;2023-02-12T05:17:47;7.20;99.90
580;DHT22;276;48.392;9.950;2023-02-12T05:20:13;7.30;99.90
580;DHT22;276;48.392;9.950;2023-02-12T05:22:39;7.20;99.90
580;DHT22;276;48.392;9.950;2023-02-12T05:25:06;7.20;99.90
580;DHT22;276;48.392;9.950;2023-02-12T05:27:31;7.20;99.90
580;DHT22;276;48.392;9.950;2023-02-12T05:29:57;7.20;99.90
580;DHT22;276;48.392;9.950;2023-02-12T05:32:23;7.20;99.90
580;DHT22;276;48.392;9.950;2023-02-12T05:34:49;7.20;99.90
580;DHT22;276;48.392;9.950;2023-02-12T05:37:14;7.20;99.90
580;DHT22;276;48.392;9.950;2023-02-12T05:39:42;7.20;99.90
580;DHT22;276;48.392;9.950;2023-02-12T05:42:08;7.20;99.90
580;DHT22;276;48.392;9.950;2023-02-12T05:44:33;7.20;99.90
580;DHT22;276;48.392;9.950;2023-02-12T05:46:59;7.20;99.90
580;DHT22;276;48.392;9.950;2023-02-12T05:49:25;7.20;99.90
580;DHT22;276;48.392;9.950;2023-02-12T05:51:55;7.20;99.90
580;DHT22;276;48.392;9.950;2023-02-12T05:54:20;7.20;99.90
580;DHT22;276;48.392;9.950;2023-02-12T05:56:51;7.20;99.90
580;DHT22;276;48.392;9.950;2023-02-12T05:59:21;7.20;99.90
580;DHT22;276;48.392;9.950;2023-02-12T06:01:51;7.30;99.90
580;DHT22;276;48.392;9.950;2023-02-12T06:04:27;7.30;99.90
580;DHT22;276;48.392;9.950;2023-02-12T06:06:56;7.30;99.90
580;DHT22;276;48.392;9.950;2023-02-12T06:09:22;7.30;99.90
580;DHT22;276;48.392;9.950;2023-02-12T06:11:53;7.30;99.90
580;DHT22;276;48.392;9.950;2023-02-12T06:14:25;7.30;99.90
580;DHT22;276;48.392;9.950;2023-02-12T06:16:53;7.30;99.90
580;DHT22;276;48.392;9.950;2023-02-12T06:19:24;7.30;99.90
580;DHT22;276;48.392;9.950;2023-02-12T06:21:52;7.30;99.90
580;DHT22;276;48.392;9.950;2023-02-12T06:24:18;7.30;99.90
580;DHT22;276;48.392;9.950;2023-02-12T06:26:47;7.30;99.90
580;DHT22;276;48.392;9.950;2023-02-12T06:29:13;7.30;99.90
580;DHT22;276;48.392;9.950;2023-02-12T06:31:41;7.30;99.90
580;DHT22;276;48.392;9.950;2023-02-12T06:34:09;7.30;99.90
580;DHT22;276;48.392;9.950;2023-02-12T06:36:36;7.40;99.90
580;DHT22;276;48.392;9.950;2023-02-12T06:39:04;7.30;99.90
580;DHT22;276;48.392;9.950;2023-02-12T06:41:34;7.30;99.90
580;DHT22;276;48.392;9.950;2023-02-12T06:44:00;7.30;99.90
580;DHT22;276;48.392;9.950;2023-02-12T06:46:27;7.30;99.90
580;DHT22;276;48.392;9.950;2023-02-12T06:48:54;7.40;99.90
580;DHT22;276;48.392;9.950;2023-02-12T06:51:21;7.40;99.90
580;DHT22;276;48.392;9.950;2023-02-12T06:53:50;7.30;99.90
580;DHT22;276;48.392;9.950;2023-02-12T06:56:18;7.40;99.90
580;DHT22;276;48.392;9.950;2023-02-12T06:58:53;7.30;99.90
580;DHT22;276;48.392;9.950;2023-02-12T07:01:23;7.40;99.90
580;DHT22;276;48.392;9.950;2023-02-12T07:03:55;7.40;99.90
580;DHT22;276;48.392;9.950;2023-02-12T07:06:22;7.40;99.90
580;DHT22;276;48.392;9.950;2023-02-12T07:08:47;7.40;99.90
580;DHT22;276;48.392;9.950;2023-02-12T07:11:16;7.40;99.90
580;DHT22;276;48.392;9.950;2023-02-12T07:13:43;7.40;99.90
580;DHT22;276;48.392;9.950;2023-02-12T07:16:13;7.40;99.90
580;DHT22;276;48.392;9.950;2023-02-12T07:18:40;7.40;99.90
580;DHT22;276;48.392;9.950;2023-02-12T07:21:07;7.50;99.90
580;DHT22;276;48.392;9.950;2023-02-12T07:23:35;7.50;99.90
580;DHT22;276;48.392;9.950;2023-02-12T07:26:04;7.50;99.90
580;DHT22;276;48.392;9.950;2023-02-12T07:28:31;7.50;99.90
580;DHT22;276;48.392;9.950;2023-02-12T07:30:58;7.50;99.90
580;DHT22;276;48.392;9.950;2023-02-12T07:33:24;7.60;99.90
580;DHT22;276;48.392;9.950;2023-02-12T07:35:50;7.60;99.90
580;DHT22;276;48.392;9.950;2023-02-12T07:38:17;7.60;99.90
580;DHT22;276;48.392;9.950;2023-02-12T07:40:45;7.70;99.90
580;DHT22;276;48.392;9.950;2023-02-12T07:43:16;7.70;99.90
580;DHT22;276;48.392;9.950;2023-02-12T07:45:41;7.80;99.90
580;DHT22;276;48.392;9.950;2023-02-12T07:48:11;7.80;99.90
580;DHT22;276;48.392;9.950;2023-02-12T07:50:40;7.80;99.90
580;DHT22;276;48.392;9.950;2023-02-12T07:53:10;7.80;99.90
580;DHT22;276;48.392;9.950;2023-02-12T07:55:40;7.90;99.90
580;DHT22;276;48.392;9.950;2023-02-12T07:58:05;7.90;99.90
580;DHT22;276;48.392;9.950;2023-02-12T08:00:31;7.90;99.90
580;DHT22;276;48.392;9.950;2023-02-12T08:02:57;7.90;99.90
580;DHT22;276;48.392;9.950;2023-02-12T08:05:22;7.90;99.90
580;DHT22;276;48.392;9.950;2023-02-12T08:07:52;7.90;99.90
580;DHT22;276;48.392;9.950;2023-02-12T08:10:18;7.90;99.90
580;DHT22;276;48.392;9.950;2023-02-12T08:12:46;7.90;99.90
580;DHT22;276;48.392;9.950;2023-02-12T08:15:17;7.90;99.90
580;DHT22;276;48.392;9.950;2023-02-12T08:17:45;8.00;99.90
580;DHT22;276;48.392;9.950;2023-02-12T08:20:14;8.10;99.90
580;DHT22;276;48.392;9.950;2023-02-12T08:22:39;8.10;99.90
580;DHT22;276;48.392;9.950;2023-02-12T08:25:05;8.10;99.90
580;DHT22;276;48.392;9.950;2023-02-12T08:27:33;8.20;99.90
580;DHT22;276;48.392;9.950;2023-02-12T08:30:03;8.20;99.90
580;DHT22;276;48.392;9.950;2023-02-12T08:32:31;8.20;99.90
580;DHT22;276;48.392;9.950;2023-02-12T08:34:58;8.30;99.90
580;DHT22;276;48.392;9.950;2023-02-12T08:37:26;8.30;99.90
580;DHT22;276;48.392;9.950;2023-02-12T08:39:53;8.40;99.90
580;DHT22;276;48.392;9.950;2023-02-12T08:42:19;8.40;99.90
580;DHT22;276;48.392;9.950;2023-02-12T08:44:49;8.40;99.90
580;DHT22;276;48.392;9.950;2023-02-12T08:47:15;8.40;99.90
580;DHT22;276;48.392;9.950;2023-02-12T08:49:41;8.50;99.90
580;DHT22;276;48.392;9.950;2023-02-12T08:52:06;8.50;99.90
580;DHT22;276;48.392;9.950;2023-02-12T08:54:32;8.60;99.90
580;DHT22;276;48.392;9.950;2023-02-12T08:57:01;8.60;99.90
580;DHT22;276;48.392;9.950;2023-02-12T08:59:30;8.60;99.90
580;DHT22;276;48.392;9.950;2023-02-12T09:02:00;8.60;99.90
580;DHT22;276;48.392;9.950;2023-02-12T09:04:29;8.70;99.90
580;DHT22;276;48.392;9.950;2023-02-12T09:06:58;8.70;99.90
580;DHT22;276;48.392;9.950;2023-02-12T09:09:31;8.80;99.90
580;DHT22;276;48.392;9.950;2023-02-12T09:11:59;8.80;99.90
580;DHT22;276;48.392;9.950;2023-02-12T09:14:26;8.80;99.90
580;DHT22;276;48.392;9.950;2023-02-12T09:16:56;8.90;99.90
580;DHT22;276;48.392;9.950;2023-02-12T09:19:24;8.90;99.90
580;DHT22;276;48.392;9.950;2023-02-12T09:21:56;9.00;99.90
580;DHT22;276;48.392;9.950;2023-02-12T09:24:22;9.10;99.90
580;DHT22;276;48.392;9.950;2023-02-12T09:26:51;9.10;99.90
580;DHT22;276;48.392;9.950;2023-02-12T09:29:19;9.20;99.90
580;DHT22;276;48.392;9.950;2023-02-12T09:31:49;9.30;99.90
580;DHT22;276;48.392;9.950;2023-02-12T09:34:15;9.30;99.90
580;DHT22;276;48.392;9.950;2023-02-12T09:36:43;9.40;99.90
580;DHT22;276;48.392;9.950;2023-02-12T09:39:09;9.50;99.90
580;DHT22;276;48.392;9.950;2023-02-12T09:41:49;9.50;99.90
580;DHT22;276;48.392;9.950;2023-02-12T09:47:39;9.50;99.90
580;DHT22;276;48.392;9.950;2023-02-12T09:50:45;9.60;99.90
580;DHT22;276;48.392;9.950;2023-02-12T09:53:21;9.60;99.90
580;DHT22;276;48.392;9.950;2023-02-12T09:55:47;9.60;99.90
580;DHT22;276;48.392;9.950;2023-02-12T09:58:30;9.60;99.90
580;DHT22;276;48.392;9.950;2023-02-12T10:01:01;9.60;99.90
580;DHT22;276;48.392;9.950;2023-02-12T10:03:34;9.60;99.90
580;DHT22;276;48.392;9.950;2023-02-12T10:06:04;9.50;99.90
580;DHT22;276;48.392;9.950;2023-02-12T10:11:45;9.40;99.90
580;DHT22;276;48.392;9.950;2023-02-12T10:17:12;9.40;99.90
580;DHT22;276;48.392;9.950;2023-02-12T10:20:05;9.40;99.90
580;DHT22;276;48.392;9.950;2023-02-12T10:28:18;9.20;99.90
580;DHT22;276;48.392;9.950;2023-02-12T10:31:01;9.20;99.90
580;DHT22;276;48.392;9.950;2023-02-12T10:36:36;9.20;99.90
580;DHT22;276;48.392;9.950;2023-02-12T10:44:28;9.20;99.90
580;DHT22;276;48.392;9.950;2023-02-12T10:46:54;9.10;99.90
580;DHT22;276;48.392;9.950;2023-02-12T10:49:20;9.10;99.90
580;DHT22;276;48.392;9.950;2023-02-12T10:52:08;9.00;99.90
580;DHT22;276;48.392;9.950;2023-02-12T10:54:46;9.00;99.90
580;DHT22;276;48.392;9.950;2023-02-12T10:57:25;9.00;99.90
580;DHT22;276;48.392;9.950;2023-02-12T10:59:54;9.00;99.90
580;DHT22;276;48.392;9.950;2023-02-12T11:02:32;9.00;99.90
580;DHT22;276;48.392;9.950;2023-02-12T11:05:19;8.90;99.90
580;DHT22;276;48.392;9.950;2023-02-12T11:07:49;8.80;99.90
580;DHT22;276;48.392;9.950;2023-02-12T11:10:32;8.80;99.90
580;DHT22;276;48.392;9.950;2023-02-12T11:13:03;8.80;99.90
580;DHT22;276;48.392;9.950;2023-02-12T11:15:36;8.70;99.90
580;DHT22;276;48.392;9.950;2023-02-12T11:18:07;8.70;99.90
580;DHT22;276;48.392;9.950;2023-02-12T11:20:50;8.70;99.90
580;DHT22;276;48.392;9.950;2023-02-12T11:25:58;8.70;99.90
580;DHT22;276;48.392;9.950;2023-02-12T11:28:24;8.70;99.90
580;DHT22;276;48.392;9.950;2023-02-12T11:31:42;8.80;99.90
580;DHT22;276;48.392;9.950;2023-02-12T11:36:46;8.90;99.90
580;DHT22;276;48.392;9.950;2023-02-12T11:39:33;8.90;99.90
580;DHT22;276;48.392;9.950;2023-02-12T11:42:13;8.90;99.90
580;DHT22;276;48.392;9.950;2023-02-12T11:44:42;8.80;99.90
580;DHT22;276;48.392;9.950;2023-02-12T11:47:23;8.80;99.90
580;DHT22;276;48.392;9.950;2023-02-12T11:52:27;8.70;99.90
580;DHT22;276;48.392;9.950;2023-02-12T11:54:58;8.70;99.90
580;DHT22;276;48.392;9.950;2023-02-12T11:57:45;8.70;99.90
580;DHT22;276;48.392;9.950;2023-02-12T12:00:56;8.60;99.90
580;DHT22;276;48.392;9.950;2023-02-12T12:03:08;8.60;99.90
580;DHT22;276;48.392;9.950;2023-02-12T12:05:38;8.60;99.90
580;DHT22;276;48.392;9.950;2023-02-12T12:08:16;8.50;99.90
580;DHT22;276;48.392;9.950;2023-02-12T12:10:50;8.50;99.90
580;DHT22;276;48.392;9.950;2023-02-12T12:13:40;8.40;99.90
580;DHT22;276;48.392;9.950;2023-02-12T12:16:31;8.40;99.90
580;DHT22;276;48.392;9.950;2023-02-12T12:19:22;8.40;99.90
580;DHT22;276;48.392;9.950;2023-02-12T12:27:41;8.40;99.90
580;DHT22;276;48.392;9.950;2023-02-12T12:33:25;8.40;99.90
580;DHT22;276;48.392;9.950;2023-02-12T12:52:28;8.60;99.90
580;DHT22;276;48.392;9.950;2023-02-12T13:14:03;8.60;99.90
580;DHT22;276;48.392;9.950;2023-02-12T13:27:25;8.60;99.90
580;DHT22;276;48.392;9.950;2023-02-12T13:30:20;8.60;99.90
580;DHT22;276;48.392;9.950;2023-02-12T13:35:59;8.50;99.90
580;DHT22;276;48.392;9.950;2023-02-12T13:38:29;8.40;99.90
580;DHT22;276;48.392;9.950;2023-02-12T13:41:03;8.30;99.90
580;DHT22;276;48.392;9.950;2023-02-12T13:43:46;8.30;99.90
580;DHT22;276;48.392;9.950;2023-02-12T13:52:01;8.40;99.90
580;DHT22;276;48.392;9.950;2023-02-12T13:54:39;8.40;99.90
580;DHT22;276;48.392;9.950;2023-02-12T13:57:14;8.40;99.90
580;DHT22;276;48.392;9.950;2023-02-12T13:59:44;8.30;99.90
580;DHT22;276;48.392;9.950;2023-02-12T14:05:23;8.30;99.90
580;DHT22;276;48.392;9.950;2023-02-12T14:07:52;8.40;99.90
580;DHT22;276;48.392;9.950;2023-02-12T14:10:21;8.40;99.90
580;DHT22;276;48.392;9.950;2023-02-12T14:12:50;8.40;99.90
580;DHT22;276;48.392;9.950;2023-02-12T14:15:30;8.40;99.90
580;DHT22;276;48.392;9.950;2023-02-12T14:18:05;8.40;99.90
580;DHT22;276;48.392;9.950;2023-02-12T14:20:34;8.40;99.90
580;DHT22;276;48.392;9.950;2023-02-12T14:33:48;8.60;99.90
580;DHT22;276;48.392;9.950;2023-02-12T14:41:45;8.60;99.90
580;DHT22;276;48.392;9.950;2023-02-12T14:46:53;8.70;99.90
580;DHT22;276;48.392;9.950;2023-02-12T14:49:33;8.70;99.90
580;DHT22;276;48.392;9.950;2023-02-12T14:54:55;8.70;99.90
580;DHT22;276;48.392;9.950;2023-02-12T14:57:34;8.70;99.90
580;DHT22;276;48.392;9.950;2023-02-12T15:00:04;8.70;99.90
580;DHT22;276;48.392;9.950;2023-02-12T15:02:40;8.60;99.90
580;DHT22;276;48.392;9.950;2023-02-12T15:05:15;8.70;99.90
580;DHT22;276;48.392;9.950;2023-02-12T15:07:48;8.70;99.90
580;DHT22;276;48.392;9.950;2023-02-12T15:10:20;8.70;99.90
580;DHT22;276;48.392;9.950;2023-02-12T15:13:06;8.70;99.90
580;DHT22;276;48.392;9.950;2023-02-12T15:15:46;8.80;99.90
580;DHT22;276;48.392;9.950;2023-02-12T15:18:21;8.80;99.90
580;DHT22;276;48.392;9.950;2023-02-12T15:20:59;8.80;99.90
580;DHT22;276;48.392;9.950;2023-02-12T15:23:37;8.90;99.90
580;DHT22;276;48.392;9.950;2023-02-12T15:26:10;8.80;99.90
580;DHT22;276;48.392;9.950;2023-02-12T15:28:36;8.80;99.90
580;DHT22;276;48.392;9.950;2023-02-12T15:31:05;8.80;99.90
580;DHT22;276;48.392;9.950;2023-02-12T15:33:38;8.90;99.90
580;DHT22;276;48.392;9.950;2023-02-12T15:36:09;8.90;99.90
580;DHT22;276;48.392;9.950;2023-02-12T15:38:37;8.90;99.90
580;DHT22;276;48.392;9.950;2023-02-12T15:41:04;9.00;99.90
580;DHT22;276;48.392;9.950;2023-02-12T15:43:33;9.00;99.90
580;DHT22;276;48.392;9.950;2023-02-12T15:46:03;9.00;99.90
580;DHT22;276;48.392;9.950;2023-02-12T15:48:35;9.00;99.90
580;DHT22;276;48.392;9.950;2023-02-12T15:51:08;9.00;99.90
580;DHT22;276;48.392;9.950;2023-02-12T15:53:35;9.00;99.90
580;DHT22;276;48.392;9.950;2023-02-12T15:56:03;9.00;99.90
580;DHT22;276;48.392;9.950;2023-02-12T15:58:31;8.90;99.90
580;DHT22;276;48.392;9.950;2023-02-12T16:01:06;8.80;99.90
580;DHT22;276;48.392;9.950;2023-02-12T16:03:36;8.80;99.90
580;DHT22;276;48.392;9.950;2023-02-12T16:06:10;8.80;99.90
580;DHT22;276;48.392;9.950;2023-02-12T16:08:39;8.80;99.90
580;DHT22;276;48.392;9.950;2023-02-12T16:11:06;8.80;99.90
580;DHT22;276;48.392;9.950;2023-02-12T16:13:47;8.80;99.90
580;DHT22;276;48.392;9.950;2023-02-12T16:16:16;8.80;99.90
580;DHT22;276;48.392;9.950;2023-02-12T16:18:43;8.80;99.90
580;DHT22;276;48.392;9.950;2023-02-12T16:21:15;8.90;99.90
580;DHT22;276;48.392;9.950;2023-02-12T16:23:46;8.90;99.90
580;DHT22;276;48.392;9.950;2023-02-12T16:26:17;8.80;99.90
580;DHT22;276;48.392;9.950;2023-02-12T16:28:47;8.80;99.90
580;DHT22;276;48.392;9.950;2023-02-12T16:31:14;8.70;99.90
580;DHT22;276;48.392;9.950;2023-02-12T16:33:46;8.70;99.90
580;DHT22;276;48.392;9.950;2023-02-12T16:38:48;8.70;99.90
580;DHT22;276;48.392;9.950;2023-02-12T16:43:43;8.60;99.90
580;DHT22;276;48.392;9.950;2023-02-12T16:46:09;8.70;99.90
580;DHT22;276;48.392;9.950;2023-02-12T16:48:45;8.70;99.90
580;DHT22;276;48.392;9.950;2023-02-12T16:53:56;8.50;99.90
580;DHT22;276;48.392;9.950;2023-02-12T16:56:23;8.50;99.90
580;DHT22;276;48.392;9.950;2023-02-12T16:58:53;8.40;99.90
580;DHT22;276;48.392;9.950;2023-02-12T17:01:31;8.50;99.90
580;DHT22;276;48.392;9.950;2023-02-12T17:03:59;8.50;99.90
580;DHT22;276;48.392;9.950;2023-02-12T17:06:28;8.50;99.90
580;DHT22;276;48.392;9.950;2023-02-12T17:08:56;8.50;99.90
580;DHT22;276;48.392;9.950;2023-02-12T17:11:26;8.50;99.90
580;DHT22;276;48.392;9.950;2023-02-12T17:13:56;8.50;99.90
580;DHT22;276;48.392;9.950;2023-02-12T17:16:24;8.50;99.90
580;DHT22;276;48.392;9.950;2023-02-12T17:18:50;8.40;99.90
580;DHT22;276;48.392;9.950;2023-02-12T17:23:50;8.40;99.90
580;DHT22;276;48.392;9.950;2023-02-12T17:26:21;8.40;99.90
580;DHT22;276;48.392;9.950;2023-02-12T17:28:47;8.30;99.90
580;DHT22;276;48.392;9.950;2023-02-12T17:31:12;8.30;99.90
580;DHT22;276;48.392;9.950;2023-02-12T17:33:43;8.30;99.90
580;DHT22;276;48.392;9.950;2023-02-12T17:36:10;8.30;99.90
580;DHT22;276;48.392;9.950;2023-02-12T17:38:36;8.30;99.90
580;DHT22;276;48.392;9.950;2023-02-12T17:41:08;8.20;99.90
580;DHT22;276;48.392;9.950;2023-02-12T17:43:33;8.20;99.90
580;DHT22;276;48.392;9.950;2023-02-12T17:45:59;8.20;99.90
580;DHT22;276;48.392;9.950;2023-02-12T17:48:25;8.10;99.90
580;DHT22;276;48.392;9.950;2023-02-12T17:50:54;8.10;99.90
580;DHT22;276;48.392;9.950;2023-02-12T17:53:24;8.10;99.90
580;DHT22;276;48.392;9.950;2023-02-12T17:55:50;8.10;99.90
580;DHT22;276;48.392;9.950;2023-02-12T17:58:15;8.00;99.90
580;DHT22;276;48.392;9.950;2023-02-12T18:00:41;7.90;99.90
580;DHT22;276;48.392;9.950;2023-02-12T18:03:11;7.90;99.90
580;DHT22;276;48.392;9.950;2023-02-12T18:05:43;7.80;99.90
580;DHT22;276;48.392;9.950;2023-02-12T18:08:10;7.80;99.90
580;DHT22;276;48.392;9.950;2023-02-12T18:10:43;7.80;99.90
580;DHT22;276;48.392;9.950;2023-02-12T18:13:09;7.70;99.90
580;DHT22;276;48.392;9.950;2023-02-12T18:15:38;7.70;99.90
580;DHT22;276;48.392;9.950;2023-02-12T18:18:07;7.70;99.90
580;DHT22;276;48.392;9.950;2023-02-12T18:20:32;7.70;99.90
580;DHT22;276;48.392;9.950;2023-02-12T18:22:58;7.70;99.90
580;DHT22;276;48.392;9.950;2023-02-12T18:25:24;7.70;99.90
580;DHT22;276;48.392;9.950;2023-02-12T18:27:49;7.70;99.90
580;DHT22;276;48.392;9.950;2023-02-12T18:30:15;7.70;99.90
580;DHT22;276;48.392;9.950;2023-02-12T18:32:43;7.70;99.90
580;DHT22;276;48.392;9.950;2023-02-12T18:35:11;7.60;99.90
580;DHT22;276;48.392;9.950;2023-02-12T18:37:39;7.60;99.90
580;DHT22;276;48.392;9.950;2023-02-12T18:40:09;7.60;99.90
580;DHT22;276;48.392;9.950;2023-02-12T18:42:37;7.60;99.90
580;DHT22;276;48.392;9.950;2023-02-12T18:45:03;7.60;99.90
580;DHT22;276;48.392;9.950;2023-02-12T18:47:29;7.60;99.90
580;DHT22;276;48.392;9.950;2023-02-12T18:49:55;7.60;99.90
580;DHT22;276;48.392;9.950;2023-02-12T18:52:22;7.50;99.90
580;DHT22;276;48.392;9.950;2023-02-12T18:54:50;7.50;99.90
580;DHT22;276;48.392;9.950;2023-02-12T18:57:17;7.50;99.90
580;DHT22;276;48.392;9.950;2023-02-12T18:59:45;7.50;99.90
580;DHT22;276;48.392;9.950;2023-02-12T19:02:12;7.50;99.90
580;DHT22;276;48.392;9.950;2023-02-12T19:04:42;7.50;99.90
580;DHT22;276;48.392;9.950;2023-02-12T19:07:07;7.40;99.90
580;DHT22;276;48.392;9.950;2023-02-12T19:09:33;7.40;99.90
580;DHT22;276;48.392;9.950;2023-02-12T19:11:59;7.40;99.90
580;DHT22;276;48.392;9.950;2023-02-12T19:14:26;7.40;99.90
580;DHT22;276;48.392;9.950;2023-02-12T19:16:57;7.30;99.90
580;DHT22;276;48.392;9.950;2023-02-12T19:19:25;7.40;99.90
580;DHT22;276;48.392;9.950;2023-02-12T19:21:53;7.30;99.90
580;DHT22;276;48.392;9.950;2023-02-12T19:24:19;7.40;99.90
580;DHT22;276;48.392;9.950;2023-02-12T19:26:45;7.30;99.90
580;DHT22;276;48.392;9.950;2023-02-12T19:29:13;7.30;99.90
580;DHT22;276;48.392;9.950;2023-02-12T19:31:42;7.30;99.90
580;DHT22;276;48.392;9.950;2023-02-12T19:34:13;7.30;99.90
580;DHT22;276;48.392;9.950;2023-02-12T19:36:41;7.20;99.90
580;DHT22;276;48.392;9.950;2023-02-12T19:39:07;7.20;99.90
580;DHT22;276;48.392;9.950;2023-02-12T19:41:33;7.20;99.90
580;DHT22;276;48.392;9.950;2023-02-12T19:44:05;7.10;99.90
580;DHT22;276;48.392;9.950;2023-02-12T19:46:31;7.10;99.90
580;DHT22;276;48.392;9.950;2023-02-12T19:49:01;7.10;99.90
580;DHT22;276;48.392;9.950;2023-02-12T19:51:28;7.10;99.90
580;DHT22;276;48.392;9.950;2023-02-12T19:53:58;7.10;99.90
580;DHT22;276;48.392;9.950;2023-02-12T19:56:26;7.00;99.90
580;DHT22;276;48.392;9.950;2023-02-12T19:58:57;7.00;99.90
580;DHT22;276;48.392;9.950;2023-02-12T20:01:25;7.00;99.90
580;DHT22;276;48.392;9.950;2023-02-12T20:03:51;6.90;99.90